Terminal Aerodrome Forecast
Issued by NWS

Home | Current Version | Previous Version | Text Only | Print | Product List | Glossary On
Versions: 1 2 3 4 5 6 7 8 9 10 11 12 13 14 15 16 17
000
FTUS45 KTFX 261142
TAFHLN
TAF
KHLN 261142Z 2612/2712 26004KT P6SM OVC060
     FM261400 22005KT P6SM OVC040
     FM261800 34004KT P6SM OVC025
      TEMPO 2618/2622 2SM -SN BR OVC015
     FM262200 34005KT 3SM -SN BR OVC020 PROB30 2707/2710 1SM -SN BR
      OVC015
     FM271000 32007KT P6SM OVC020=

USA.gov is the U.S. government's official web portal to all federal, state and local government web resources and services.